Time;durP1;ratioP1;P1;durP2;ratioP2;P2;SDS_P1;SDS_P2;PMS_P1;PMS_P2;Temp;Humidity;BMP_temperature;BMP_pressure;BME280_temperature;BME280_humidity;BME280_pressure;Samples;Min_cycle;Max_cycle;Signal;HPM_P1;HPM_P2
2021/12/20 00:02:14;;;;;;;19.77;4.57;;;;;;;;;;5063540;28;20119;-74
2021/12/20 00:04:40;;;;;;;16.55;4.10;;;;;;;;;;5095357;28;20400;-74
2021/12/20 00:07:06;;;;;;;17.35;4.72;;;;;;;;;;5096585;28;20049;-74
2021/12/20 00:09:32;;;;;;;18.80;5.07;;;;;;;;;;5062863;28;20043;-74
2021/12/20 00:11:58;;;;;;;14.40;3.88;;;;;;;;;;5095279;28;20036;-74
2021/12/20 00:14:24;;;;;;;22.23;4.40;;;;;;;;;;5066952;28;20507;-75
2021/12/20 00:16:50;;;;;;;17.70;4.30;;;;;;;;;;5065105;28;20101;-74
2021/12/20 00:19:16;;;;;;;18.40;5.20;;;;;;;;;;5061086;28;20045;-74
2021/12/20 00:21:42;;;;;;;17.85;4.07;;;;;;;;;;5096125;28;20140;-74
2021/12/20 00:24:08;;;;;;;20.05;3.97;;;;;;;;;;5064732;28;20072;-74
2021/12/20 00:26:34;;;;;;;12.40;3.50;;;;;;;;;;5060750;28;20075;-74
2021/12/20 00:29:00;;;;;;;13.77;3.67;;;;;;;;;;5059717;28;20083;-75
2021/12/20 00:31:26;;;;;;;19.35;4.18;;;;;;;;;;5094137;28;20049;-75
2021/12/20 00:33:52;;;;;;;20.35;4.13;;;;;;;;;;5098975;28;20442;-75
2021/12/20 00:36:21;;;;;;;17.88;3.65;;;;;;;;;;5064909;28;20047;-74
2021/12/20 00:41:32;;;;;;;16.67;3.97;;;;;;;;;;5061752;28;20136;-74
2021/12/20 00:43:59;;;;;;;14.93;5.65;;;;;;;;;;5096606;28;20127;-75
2021/12/20 00:46:25;;;;;;;24.08;7.53;;;;;;;;;;5064744;28;20087;-75
2021/12/20 00:48:51;;;;;;;19.95;8.07;;;;;;;;;;5058522;28;20499;-74
2021/12/20 00:51:17;;;;;;;20.80;5.43;;;;;;;;;;5062537;28;20484;-74
2021/12/20 00:53:46;;;;;;;20.00;5.40;;;;;;;;;;5065712;28;20046;-74
2021/12/20 00:56:12;;;;;;;22.40;5.25;;;;;;;;;;5065706;28;20545;-74
2021/12/20 00:58:38;;;;;;;16.10;4.03;;;;;;;;;;5068777;28;20055;-74
2021/12/20 01:01:06;;;;;;;21.25;6.22;;;;;;;;;;5066120;28;20053;-75
2021/12/20 01:03:33;;;;;;;13.98;4.43;;;;;;;;;;5093597;28;20053;-74
2021/12/20 01:06:02;;;;;;;17.40;4.22;;;;;;;;;;5063683;28;20123;-74
2021/12/20 01:08:33;;;;;;;19.27;4.72;;;;;;;;;;5065092;28;20036;-74
2021/12/20 01:11:00;;;;;;;16.67;4.28;;;;;;;;;;5062944;28;20063;-74
2021/12/20 01:13:29;;;;;;;17.10;4.05;;;;;;;;;;5103097;28;20056;-74
2021/12/20 01:15:58;;;;;;;23.33;4.68;;;;;;;;;;5066346;28;20115;-74
2021/12/20 01:18:24;;;;;;;22.02;4.75;;;;;;;;;;5098235;28;20055;-75
2021/12/20 01:20:56;;;;;;;15.45;3.90;;;;;;;;;;5101995;28;20044;-75
2021/12/20 01:23:22;;;;;;;16.88;3.88;;;;;;;;;;5101579;28;21375;-75
2021/12/20 01:25:48;;;;;;;16.38;3.83;;;;;;;;;;5099478;28;20048;-75
2021/12/20 01:28:14;;;;;;;14.98;3.83;;;;;;;;;;5063449;28;20060;-74
2021/12/20 01:30:41;;;;;;;17.08;3.50;;;;;;;;;;5065447;28;20793;-73
2021/12/20 01:33:09;;;;;;;15.70;3.70;;;;;;;;;;5092556;28;20124;-73
2021/12/20 01:35:35;;;;;;;14.68;4.00;;;;;;;;;;5099446;28;20071;-73
2021/12/20 01:38:01;;;;;;;16.05;4.32;;;;;;;;;;5067090;28;20041;-74
2021/12/20 01:40:27;;;;;;;17.80;4.05;;;;;;;;;;5065125;28;20044;-75
2021/12/20 01:42:56;;;;;;;13.98;3.88;;;;;;;;;;5063463;28;20040;-75
2021/12/20 01:45:23;;;;;;;13.52;3.28;;;;;;;;;;5099556;28;20073;-75
2021/12/20 01:47:59;;;;;;;14.80;4.85;;;;;;;;;;5061636;28;20053;-75
2021/12/20 01:50:40;;;;;;;13.88;3.28;;;;;;;;;;5068266;28;20052;-75
2021/12/20 01:53:07;;;;;;;14.77;3.45;;;;;;;;;;5096227;28;20557;-75
2021/12/20 01:55:33;;;;;;;15.25;3.20;;;;;;;;;;5062675;28;20435;-75
2021/12/20 01:57:59;;;;;;;12.63;3.58;;;;;;;;;;5068294;28;20451;-75
2021/12/20 02:00:26;;;;;;;17.60;3.45;;;;;;;;;;5075031;28;20049;-75
2021/12/20 02:02:58;;;;;;;16.38;3.03;;;;;;;;;;5067870;28;20057;-75
2021/12/20 02:05:35;;;;;;;12.63;3.30;;;;;;;;;;5065356;28;20121;-75
2021/12/20 02:08:13;;;;;;;22.10;3.92;;;;;;;;;;5069254;28;20476;-75
2021/12/20 02:10:39;;;;;;;12.23;2.75;;;;;;;;;;5064110;28;20044;-74
2021/12/20 02:13:06;;;;;;;12.45;3.03;;;;;;;;;;5066103;28;20044;-75
2021/12/20 02:15:32;;;;;;;12.65;4.07;;;;;;;;;;5101236;28;20052;-75
2021/12/20 02:17:58;;;;;;;17.55;4.38;;;;;;;;;;5097068;28;20074;-75
2021/12/20 02:20:28;;;;;;;13.32;3.30;;;;;;;;;;5097010;28;20053;-75
2021/12/20 02:22:56;;;;;;;14.20;3.45;;;;;;;;;;5060536;28;20051;-75
2021/12/20 02:25:22;;;;;;;18.83;4.50;;;;;;;;;;5100546;28;20073;-75
2021/12/20 02:27:48;;;;;;;15.45;3.80;;;;;;;;;;5099960;28;20033;-76
2021/12/20 02:30:38;;;;;;;13.23;3.47;;;;;;;;;;5065761;28;20052;-75
2021/12/20 02:38:36;;;;;;;10.85;3.15;;;;;;;;;;5066268;28;20052;-75
2021/12/20 02:41:07;;;;;;;10.13;3.17;;;;;;;;;;5095469;28;20079;-75
2021/12/20 02:43:37;;;;;;;11.75;2.70;;;;;;;;;;5063059;28;20048;-75
2021/12/20 02:46:06;;;;;;;8.82;3.03;;;;;;;;;;5061206;28;20040;-75
2021/12/20 02:48:32;;;;;;;9.93;2.30;;;;;;;;;;5091599;28;20123;-75
2021/12/20 02:50:58;;;;;;;7.13;2.30;;;;;;;;;;5096472;28;20135;-75
2021/12/20 02:53:24;;;;;;;8.38;2.42;;;;;;;;;;5067709;28;20062;-75
2021/12/20 02:55:50;;;;;;;7.85;2.15;;;;;;;;;;5095827;28;20080;-75
2021/12/20 02:58:16;;;;;;;10.50;2.58;;;;;;;;;;5094020;28;20037;-74
2021/12/20 03:00:44;;;;;;;12.43;2.92;;;;;;;;;;5064906;28;20135;-75
2021/12/20 03:03:10;;;;;;;15.18;3.03;;;;;;;;;;5093452;28;20444;-75
2021/12/20 03:05:37;;;;;;;8.45;2.67;;;;;;;;;;5092817;28;20686;-75
2021/12/20 03:08:04;;;;;;;9.93;2.45;;;;;;;;;;5067628;28;20127;-75
2021/12/20 03:10:31;;;;;;;10.40;2.33;;;;;;;;;;5066019;28;20059;-75
2021/12/20 03:12:57;;;;;;;7.78;1.88;;;;;;;;;;5061255;28;20041;-75
2021/12/20 03:15:26;;;;;;;7.32;2.05;;;;;;;;;;5062878;28;20060;-75
2021/12/20 03:17:54;;;;;;;10.98;2.72;;;;;;;;;;5061122;28;20040;-75
2021/12/20 03:20:21;;;;;;;8.05;2.45;;;;;;;;;;5063080;28;20480;-74
2021/12/20 03:22:47;;;;;;;8.27;2.50;;;;;;;;;;5091671;28;20537;-75
2021/12/20 03:25:14;;;;;;;6.50;2.10;;;;;;;;;;5091864;28;20131;-75
2021/12/20 03:27:40;;;;;;;8.48;2.45;;;;;;;;;;5095134;28;20059;-75
2021/12/20 03:30:08;;;;;;;6.57;1.90;;;;;;;;;;5066344;28;20059;-75
2021/12/20 03:32:34;;;;;;;8.93;2.70;;;;;;;;;;5057535;28;20085;-75
2021/12/20 03:35:00;;;;;;;3.65;2.28;;;;;;;;;;5095773;28;20124;-75
2021/12/20 03:37:26;;;;;;;7.35;2.10;;;;;;;;;;5067449;28;20519;-75
2021/12/20 03:39:52;;;;;;;9.18;2.10;;;;;;;;;;5057726;28;20048;-75
2021/12/20 03:42:19;;;;;;;8.52;2.10;;;;;;;;;;5066134;28;20052;-75
2021/12/20 03:44:45;;;;;;;10.15;2.70;;;;;;;;;;5093486;28;20050;-75
2021/12/20 03:47:13;;;;;;;7.68;2.00;;;;;;;;;;5062458;28;20040;-75
2021/12/20 03:49:40;;;;;;;5.55;1.88;;;;;;;;;;5093130;28;20060;-75
2021/12/20 03:52:07;;;;;;;10.82;2.33;;;;;;;;;;5095381;28;20471;-75
2021/12/20 03:54:33;;;;;;;8.25;2.58;;;;;;;;;;5063222;28;20060;-75
2021/12/20 03:57:03;;;;;;;10.00;2.40;;;;;;;;;;5095829;28;20037;-75
2021/12/20 03:59:29;;;;;;;7.20;1.98;;;;;;;;;;5065971;28;20055;-75
2021/12/20 04:01:56;;;;;;;10.73;2.40;;;;;;;;;;5095944;28;20373;-75
2021/12/20 04:04:23;;;;;;;14.30;2.40;;;;;;;;;;5065578;28;20053;-75
2021/12/20 04:06:49;;;;;;;6.15;2.30;;;;;;;;;;5064081;28;20052;-75
2021/12/20 04:09:15;;;;;;;11.20;2.40;;;;;;;;;;5065682;28;20403;-75
2021/12/20 04:11:41;;;;;;;7.40;2.40;;;;;;;;;;5093031;28;20036;-75
2021/12/20 04:14:07;;;;;;;7.60;2.03;;;;;;;;;;5091824;28;20097;-75
2021/12/20 04:16:34;;;;;;;5.72;2.00;;;;;;;;;;5091616;28;20533;-75
2021/12/20 04:19:00;;;;;;;7.95;2.17;;;;;;;;;;5092182;28;20610;-75
2021/12/20 04:21:26;;;;;;;7.05;2.03;;;;;;;;;;5064985;28;20049;-75
2021/12/20 04:23:52;;;;;;;8.35;2.28;;;;;;;;;;5067021;28;20048;-76
2021/12/20 04:26:18;;;;;;;9.85;2.20;;;;;;;;;;5064666;28;20114;-75
2021/12/20 04:28:44;;;;;;;7.88;1.92;;;;;;;;;;5061994;28;20049;-75
2021/12/20 04:31:10;;;;;;;12.32;3.20;;;;;;;;;;5064614;28;20040;-75
2021/12/20 04:33:36;;;;;;;9.70;2.30;;;;;;;;;;5065234;28;20044;-75
2021/12/20 04:36:02;;;;;;;10.27;2.40;;;;;;;;;;5058221;28;20447;-75
2021/12/20 04:38:29;;;;;;;9.63;2.30;;;;;;;;;;5093093;28;20045;-75
2021/12/20 04:40:55;;;;;;;11.25;2.42;;;;;;;;;;5067513;28;20064;-75
2021/12/20 04:43:21;;;;;;;9.68;2.42;;;;;;;;;;5096867;28;20037;-75
2021/12/20 04:45:47;;;;;;;7.05;2.42;;;;;;;;;;5101275;28;20048;-75
2021/12/20 04:48:13;;;;;;;11.38;2.55;;;;;;;;;;5067882;28;20098;-75
2021/12/20 04:50:40;;;;;;;10.25;2.78;;;;;;;;;;5070432;28;20040;-75
2021/12/20 04:53:06;;;;;;;5.93;2.10;;;;;;;;;;5070133;28;20037;-75
2021/12/20 04:55:33;;;;;;;7.50;2.03;;;;;;;;;;5102398;28;20052;-75
2021/12/20 04:58:00;;;;;;;7.90;1.95;;;;;;;;;;5062971;28;20033;-75
2021/12/20 05:00:28;;;;;;;7.28;2.00;;;;;;;;;;5067015;28;20060;-75
2021/12/20 05:02:54;;;;;;;10.15;2.42;;;;;;;;;;5062213;28;20557;-75
2021/12/20 05:05:21;;;;;;;10.73;2.60;;;;;;;;;;5070183;28;20082;-75
2021/12/20 05:07:47;;;;;;;10.65;1.90;;;;;;;;;;5061894;28;20037;-75
2021/12/20 05:10:24;;;;;;;9.02;2.45;;;;;;;;;;5064648;28;20355;-75
2021/12/20 05:12:51;;;;;;;9.00;2.10;;;;;;;;;;5060255;28;20098;-75
2021/12/20 05:15:17;;;;;;;5.18;1.80;;;;;;;;;;5094346;28;20483;-75
2021/12/20 05:17:43;;;;;;;6.82;2.20;;;;;;;;;;5092952;28;20082;-75
2021/12/20 05:20:09;;;;;;;10.63;2.28;;;;;;;;;;5099218;28;20082;-75
2021/12/20 05:22:35;;;;;;;9.68;2.70;;;;;;;;;;5094975;28;20041;-75
2021/12/20 05:25:01;;;;;;;10.07;2.40;;;;;;;;;;5093613;28;20785;-75
2021/12/20 05:27:27;;;;;;;7.15;2.78;;;;;;;;;;5066015;28;20045;-75
2021/12/20 05:29:53;;;;;;;8.48;2.72;;;;;;;;;;5070425;28;20076;-75
2021/12/20 05:32:19;;;;;;;6.13;2.90;;;;;;;;;;5069651;28;20042;-75
2021/12/20 05:34:46;;;;;;;8.57;2.40;;;;;;;;;;5062443;28;20127;-75
2021/12/20 05:37:13;;;;;;;8.38;2.85;;;;;;;;;;5066451;28;20036;-75
2021/12/20 05:39:40;;;;;;;9.32;2.95;;;;;;;;;;5062706;28;20412;-75
2021/12/20 05:42:06;;;;;;;8.20;2.75;;;;;;;;;;5097043;27;20135;-75
2021/12/20 05:44:32;;;;;;;5.35;2.50;;;;;;;;;;5101625;27;20492;-75
2021/12/20 05:46:58;;;;;;;8.30;2.95;;;;;;;;;;5070988;28;20119;-75
2021/12/20 05:49:24;;;;;;;6.68;2.55;;;;;;;;;;5074900;28;20113;-75
2021/12/20 05:51:50;;;;;;;5.80;2.75;;;;;;;;;;5070054;28;20628;-75
2021/12/20 05:54:16;;;;;;;10.02;3.33;;;;;;;;;;5072651;28;20057;-75
2021/12/20 05:56:42;;;;;;;12.15;3.08;;;;;;;;;;5072797;28;20396;-75
2021/12/20 05:59:08;;;;;;;10.82;3.47;;;;;;;;;;5069617;28;20044;-74
2021/12/20 06:01:34;;;;;;;11.63;3.63;;;;;;;;;;5066037;28;20520;-75
2021/12/20 06:04:00;;;;;;;10.93;3.78;;;;;;;;;;5094703;27;20048;-74
2021/12/20 06:06:31;;;;;;;8.85;3.55;;;;;;;;;;5097153;27;20106;-75
2021/12/20 06:08:58;;;;;;;8.68;3.60;;;;;;;;;;5065241;28;20488;-74
2021/12/20 06:11:24;;;;;;;7.25;3.60;;;;;;;;;;5063968;28;20041;-75
2021/12/20 06:13:51;;;;;;;18.25;9.63;;;;;;;;;;5066841;28;20052;-75
2021/12/20 06:16:17;;;;;;;18.50;8.93;;;;;;;;;;5069922;28;20057;-75
2021/12/20 06:18:43;;;;;;;16.58;6.45;;;;;;;;;;5099707;28;20047;-75
2021/12/20 06:21:09;;;;;;;14.73;6.40;;;;;;;;;;5071224;28;20047;-75
2021/12/20 06:23:35;;;;;;;13.88;5.57;;;;;;;;;;5098585;28;20052;-75
2021/12/20 06:26:01;;;;;;;11.10;4.30;;;;;;;;;;5098355;28;20098;-75
2021/12/20 06:28:28;;;;;;;11.18;3.78;;;;;;;;;;5065413;28;20387;-75
2021/12/20 06:30:54;;;;;;;12.02;3.40;;;;;;;;;;5102868;27;20036;-75
2021/12/20 06:33:20;;;;;;;9.65;3.28;;;;;;;;;;5068010;28;20049;-75
2021/12/20 06:35:46;;;;;;;6.78;3.40;;;;;;;;;;5093870;28;20076;-74
2021/12/20 06:38:18;;;;;;;12.30;3.80;;;;;;;;;;5099883;27;20055;-75
2021/12/20 06:40:45;;;;;;;9.55;3.17;;;;;;;;;;5063917;28;20113;-75
2021/12/20 06:43:11;;;;;;;8.65;3.25;;;;;;;;;;5062326;28;20048;-74
2021/12/20 06:45:38;;;;;;;13.15;3.22;;;;;;;;;;5066223;28;20071;-75
2021/12/20 06:48:04;;;;;;;9.57;3.20;;;;;;;;;;5062255;28;20044;-74
2021/12/20 06:50:30;;;;;;;9.43;2.70;;;;;;;;;;5096909;28;20045;-74
2021/12/20 06:52:57;;;;;;;9.18;2.58;;;;;;;;;;5069172;28;20045;-74
2021/12/20 06:55:23;;;;;;;8.02;3.33;;;;;;;;;;5056217;28;20076;-75
2021/12/20 06:57:49;;;;;;;13.10;3.40;;;;;;;;;;5091574;28;20045;-74
2021/12/20 07:00:16;;;;;;;11.50;2.70;;;;;;;;;;5094824;28;20488;-74
2021/12/20 07:02:42;;;;;;;7.30;3.50;;;;;;;;;;5066347;28;20408;-74
2021/12/20 07:05:09;;;;;;;12.15;5.40;;;;;;;;;;5095014;28;20056;-73
2021/12/20 07:07:35;;;;;;;9.50;3.03;;;;;;;;;;5064943;28;20040;-72
2021/12/20 07:10:03;;;;;;;10.60;2.75;;;;;;;;;;5064664;28;20127;-73
2021/12/20 07:12:29;;;;;;;13.25;4.38;;;;;;;;;;5095516;28;20476;-73
2021/12/20 07:14:55;;;;;;;10.48;5.28;;;;;;;;;;5096332;28;20056;-72
2021/12/20 07:17:21;;;;;;;11.68;3.53;;;;;;;;;;5098620;28;20045;-73
2021/12/20 07:19:47;;;;;;;7.82;2.70;;;;;;;;;;5063368;28;20055;-73
2021/12/20 07:22:13;;;;;;;13.25;4.40;;;;;;;;;;5063736;28;20048;-73
2021/12/20 07:24:39;;;;;;;12.48;3.65;;;;;;;;;;5088537;28;20064;-72
2021/12/20 07:27:07;;;;;;;11.77;4.00;;;;;;;;;;5098980;28;20483;-72
2021/12/20 07:29:33;;;;;;;12.02;4.22;;;;;;;;;;5092237;28;20508;-72
2021/12/20 07:31:59;;;;;;;11.23;4.13;;;;;;;;;;5063649;28;20095;-74
2021/12/20 07:34:25;;;;;;;11.38;5.30;;;;;;;;;;5095588;28;20048;-72
2021/12/20 07:36:53;;;;;;;9.73;5.60;;;;;;;;;;5101708;28;20044;-73
2021/12/20 07:39:19;;;;;;;11.35;4.70;;;;;;;;;;5097513;28;20080;-73
2021/12/20 07:41:46;;;;;;;12.07;4.40;;;;;;;;;;5099084;28;20060;-73
2021/12/20 07:44:12;;;;;;;10.63;3.17;;;;;;;;;;5067187;28;20044;-73
2021/12/20 07:46:38;;;;;;;10.00;3.20;;;;;;;;;;5091221;28;20033;-73
2021/12/20 07:49:04;;;;;;;13.60;3.38;;;;;;;;;;5063897;28;20123;-73
2021/12/20 07:51:30;;;;;;;8.05;2.83;;;;;;;;;;5067285;28;20496;-73
2021/12/20 07:53:56;;;;;;;8.10;2.63;;;;;;;;;;5065601;28;20143;-72
2021/12/20 07:56:22;;;;;;;8.07;2.88;;;;;;;;;;5066896;28;20052;-73
2021/12/20 07:58:48;;;;;;;10.10;3.10;;;;;;;;;;5068232;28;20055;-73
2021/12/20 08:01:16;;;;;;;12.10;2.60;;;;;;;;;;5067391;28;20052;-73
2021/12/20 08:03:42;;;;;;;8.57;2.92;;;;;;;;;;5093647;28;20052;-73
2021/12/20 08:06:08;;;;;;;10.35;2.78;;;;;;;;;;5068583;28;20044;-73
2021/12/20 08:08:35;;;;;;;9.48;2.78;;;;;;;;;;5065174;28;20055;-73
2021/12/20 08:11:01;;;;;;;7.82;3.13;;;;;;;;;;5063116;28;20057;-73
2021/12/20 08:13:27;;;;;;;8.50;3.05;;;;;;;;;;5092769;28;20443;-72
2021/12/20 08:15:53;;;;;;;7.85;2.75;;;;;;;;;;5065800;28;20036;-73
2021/12/20 08:18:20;;;;;;;11.02;3.65;;;;;;;;;;5056925;28;20389;-73
2021/12/20 08:20:46;;;;;;;9.48;3.75;;;;;;;;;;5090522;28;20484;-73
2021/12/20 08:23:12;;;;;;;7.93;2.85;;;;;;;;;;5093722;28;20056;-73
2021/12/20 08:25:39;;;;;;;11.52;2.80;;;;;;;;;;5098013;28;20434;-73
2021/12/20 08:28:06;;;;;;;12.57;3.50;;;;;;;;;;5066913;28;20495;-73
2021/12/20 08:30:32;;;;;;;15.70;4.35;;;;;;;;;;5063689;28;20127;-73
2021/12/20 08:32:58;;;;;;;10.15;3.13;;;;;;;;;;5065294;28;20076;-73
2021/12/20 08:35:24;;;;;;;10.80;3.20;;;;;;;;;;5061620;28;20053;-73
2021/12/20 08:37:53;;;;;;;10.93;3.83;;;;;;;;;;5092716;28;20048;-73
2021/12/20 08:40:19;;;;;;;11.00;2.80;;;;;;;;;;5097430;28;20076;-73
2021/12/20 08:42:45;;;;;;;11.48;3.55;;;;;;;;;;5097329;28;20453;-73
2021/12/20 08:45:12;;;;;;;8.82;3.50;;;;;;;;;;5089458;28;20127;-73
2021/12/20 08:47:38;;;;;;;8.63;3.30;;;;;;;;;;5064717;28;20037;-74
2021/12/20 08:50:06;;;;;;;7.47;3.30;;;;;;;;;;5097476;28;20044;-73
2021/12/20 08:52:33;;;;;;;13.90;3.60;;;;;;;;;;5060034;28;20120;-73
2021/12/20 08:54:59;;;;;;;9.65;3.13;;;;;;;;;;5061244;28;20069;-73
2021/12/20 08:57:25;;;;;;;9.40;3.10;;;;;;;;;;5097086;28;20048;-72
2021/12/20 08:59:51;;;;;;;10.85;4.05;;;;;;;;;;5062050;28;20076;-73
2021/12/20 09:02:17;;;;;;;9.57;3.42;;;;;;;;;;5067535;28;20161;-73
2021/12/20 09:04:43;;;;;;;11.48;3.85;;;;;;;;;;5094033;28;20093;-73
2021/12/20 09:07:15;;;;;;;14.20;3.55;;;;;;;;;;5097375;28;20040;-73
2021/12/20 09:09:44;;;;;;;14.52;3.40;;;;;;;;;;5065696;28;20045;-73
2021/12/20 09:12:10;;;;;;;10.50;3.10;;;;;;;;;;5065150;28;20496;-73
2021/12/20 09:14:36;;;;;;;11.30;3.80;;;;;;;;;;5086284;28;20459;-73
2021/12/20 09:17:03;;;;;;;10.02;3.00;;;;;;;;;;5081048;28;20040;-73
2021/12/20 09:19:29;;;;;;;9.18;3.60;;;;;;;;;;5066227;28;20054;-73
2021/12/20 09:21:55;;;;;;;10.57;3.95;;;;;;;;;;5060257;28;20450;-73
2021/12/20 09:24:21;;;;;;;6.95;3.35;;;;;;;;;;5060636;28;20102;-73
2021/12/20 09:26:47;;;;;;;9.07;3.40;;;;;;;;;;5098461;28;20087;-73
2021/12/20 09:29:13;;;;;;;14.38;3.83;;;;;;;;;;5061427;28;20045;-73
2021/12/20 09:31:40;;;;;;;13.70;4.65;;;;;;;;;;5062262;28;20544;-73
2021/12/20 09:34:06;;;;;;;9.93;4.85;;;;;;;;;;5059769;28;20166;-74
2021/12/20 09:36:33;;;;;;;13.15;5.00;;;;;;;;;;5100265;28;20048;-73
2021/12/20 09:38:59;;;;;;;14.63;5.28;;;;;;;;;;5070360;28;20056;-73
2021/12/20 09:44:01;;;;;;;12.77;4.82;;;;;;;;;;5067466;28;20056;-73
2021/12/20 09:46:28;;;;;;;9.57;4.70;;;;;;;;;;5092900;28;20052;-73
2021/12/20 09:48:54;;;;;;;11.07;4.00;;;;;;;;;;5069250;28;20118;-73
2021/12/20 09:51:21;;;;;;;9.13;4.25;;;;;;;;;;5098131;28;20092;-73
2021/12/20 09:53:47;;;;;;;11.85;4.53;;;;;;;;;;5060104;28;20512;-73
2021/12/20 09:56:13;;;;;;;11.15;4.22;;;;;;;;;;5065141;28;20084;-73
2021/12/20 09:58:40;;;;;;;8.75;3.60;;;;;;;;;;5097001;28;20052;-73
2021/12/20 10:01:07;;;;;;;12.05;4.20;;;;;;;;;;5063988;28;20559;-73
2021/12/20 10:03:33;;;;;;;13.98;4.38;;;;;;;;;;5061471;28;20045;-73
2021/12/20 10:06:00;;;;;;;10.85;5.00;;;;;;;;;;5064190;28;20045;-73
2021/12/20 10:08:34;;;;;;;15.50;4.35;;;;;;;;;;5093959;28;20054;-72
2021/12/20 10:11:07;;;;;;;13.23;3.92;;;;;;;;;;5100167;28;20044;-73
2021/12/20 10:13:34;;;;;;;13.63;3.58;;;;;;;;;;5060458;28;20082;-73
2021/12/20 10:16:02;;;;;;;13.45;3.75;;;;;;;;;;5095667;28;20047;-73
2021/12/20 10:18:30;;;;;;;8.60;3.33;;;;;;;;;;5100004;27;20029;-73
2021/12/20 10:20:57;;;;;;;11.60;3.58;;;;;;;;;;5093645;28;20064;-73
2021/12/20 10:23:27;;;;;;;12.93;3.55;;;;;;;;;;5056852;28;20047;-73
2021/12/20 10:26:01;;;;;;;11.05;3.60;;;;;;;;;;5095528;28;20049;-73
2021/12/20 10:28:31;;;;;;;13.05;4.55;;;;;;;;;;5070055;28;20056;-73
2021/12/20 10:31:09;;;;;;;12.63;4.07;;;;;;;;;;5062310;28;20055;-73
2021/12/20 10:33:35;;;;;;;10.90;4.57;;;;;;;;;;5066837;28;20074;-74
2021/12/20 10:36:03;;;;;;;15.15;7.72;;;;;;;;;;5060265;28;20493;-73
2021/12/20 10:38:33;;;;;;;21.52;11.73;;;;;;;;;;5088302;28;20033;-73
2021/12/20 10:41:18;;;;;;;19.58;10.00;;;;;;;;;;5089319;28;20040;-73
2021/12/20 10:43:51;;;;;;;13.32;8.23;;;;;;;;;;5059988;28;20080;-71
2021/12/20 10:46:17;;;;;;;25.90;13.82;;;;;;;;;;5091910;28;20040;-71
2021/12/20 10:48:44;;;;;;;19.88;11.07;;;;;;;;;;5086322;28;20470;-72
2021/12/20 10:51:27;;;;;;;10.07;3.08;;;;;;;;;;5055835;28;20047;-72
2021/12/20 10:53:59;;;;;;;13.52;4.43;;;;;;;;;;5090777;28;20105;-72
2021/12/20 10:56:26;;;;;;;10.85;2.85;;;;;;;;;;5090850;28;20184;-71
2021/12/20 10:58:53;;;;;;;6.75;2.30;;;;;;;;;;5064838;28;20468;-71
2021/12/20 11:04:12;;;;;;;6.82;2.22;;;;;;;;;;5062788;28;20079;-71
2021/12/20 11:09:19;;;;;;;7.45;3.00;;;;;;;;;;5089532;28;20110;-72
2021/12/20 11:11:46;;;;;;;11.23;3.55;;;;;;;;;;5096327;28;20098;-72
2021/12/20 11:14:12;;;;;;;11.48;2.65;;;;;;;;;;5088461;28;20049;-71
2021/12/20 11:16:38;;;;;;;7.97;2.30;;;;;;;;;;5068022;28;20051;-72
2021/12/20 11:19:07;;;;;;;9.15;2.22;;;;;;;;;;5072265;28;20044;-72
2021/12/20 11:21:33;;;;;;;8.20;2.22;;;;;;;;;;5061646;28;20452;-71
2021/12/20 11:24:00;;;;;;;10.90;2.25;;;;;;;;;;5087730;27;20508;-72
2021/12/20 11:26:31;;;;;;;9.15;2.72;;;;;;;;;;5085582;28;20164;-72
2021/12/20 11:28:57;;;;;;;6.97;2.05;;;;;;;;;;5072367;28;20055;-71
2021/12/20 11:31:24;;;;;;;7.53;2.55;;;;;;;;;;5053541;28;20401;-72
2021/12/20 11:33:50;;;;;;;7.72;2.40;;;;;;;;;;5088916;28;20044;-71
2021/12/20 11:36:16;;;;;;;11.50;3.22;;;;;;;;;;5059888;28;20051;-71
2021/12/20 11:38:42;;;;;;;8.45;2.40;;;;;;;;;;5062211;28;20032;-71
2021/12/20 11:41:08;;;;;;;7.97;2.30;;;;;;;;;;5091333;28;20211;-72
2021/12/20 11:43:34;;;;;;;9.55;2.30;;;;;;;;;;5055101;28;20056;-72
2021/12/20 11:46:01;;;;;;;12.05;2.42;;;;;;;;;;5053081;28;20073;-72
2021/12/20 11:48:29;;;;;;;7.18;2.20;;;;;;;;;;5056845;28;20110;-72
2021/12/20 11:50:56;;;;;;;12.40;2.17;;;;;;;;;;5059456;28;20373;-72
2021/12/20 11:53:22;;;;;;;10.30;2.40;;;;;;;;;;5061244;28;20555;-72
2021/12/20 11:55:55;;;;;;;6.38;2.28;;;;;;;;;;5069020;28;20041;-72
2021/12/20 11:58:23;;;;;;;7.90;2.40;;;;;;;;;;5065957;28;20105;-72
2021/12/20 12:00:51;;;;;;;10.88;2.53;;;;;;;;;;5091699;28;20310;-72
2021/12/20 12:03:19;;;;;;;9.20;2.15;;;;;;;;;;5096088;28;20124;-71
2021/12/20 12:06:05;;;;;;;8.45;2.53;;;;;;;;;;5068585;28;20048;-71
2021/12/20 12:08:32;;;;;;;12.20;2.35;;;;;;;;;;5060497;28;20044;-73
2021/12/20 12:11:21;;;;;;;10.68;2.50;;;;;;;;;;5095639;28;20072;-74
2021/12/20 12:13:49;;;;;;;10.98;3.28;;;;;;;;;;5054996;28;20252;-73
2021/12/20 12:16:27;;;;;;;7.15;2.53;;;;;;;;;;5053077;28;20501;-74
2021/12/20 12:18:54;;;;;;;10.05;2.67;;;;;;;;;;5055541;28;20068;-75
2021/12/20 12:21:29;;;;;;;12.82;2.65;;;;;;;;;;5055147;28;20055;-76
2021/12/20 12:23:55;;;;;;;10.90;2.47;;;;;;;;;;5061739;28;20200;-76
2021/12/20 12:26:35;;;;;;;7.20;2.05;;;;;;;;;;5086560;28;20139;-74
2021/12/20 12:29:01;;;;;;;7.72;2.50;;;;;;;;;;5092060;28;20041;-74
2021/12/20 12:31:28;;;;;;;8.95;2.17;;;;;;;;;;5094204;28;20053;-73
2021/12/20 12:34:08;;;;;;;7.68;2.25;;;;;;;;;;5095850;28;20135;-73
2021/12/20 12:36:40;;;;;;;7.95;2.20;;;;;;;;;;5091628;28;20063;-73
2021/12/20 12:39:08;;;;;;;8.52;2.65;;;;;;;;;;5077726;28;20048;-73
2021/12/20 12:41:46;;;;;;;9.63;2.42;;;;;;;;;;5054803;28;20072;-73
2021/12/20 12:44:19;;;;;;;9.50;2.38;;;;;;;;;;5053547;28;20052;-73
2021/12/20 12:46:50;;;;;;;7.28;2.50;;;;;;;;;;5085575;28;20064;-74
2021/12/20 12:49:22;;;;;;;10.98;2.67;;;;;;;;;;5086236;28;20083;-73
2021/12/20 12:51:49;;;;;;;12.15;2.58;;;;;;;;;;5053930;28;20045;-73
2021/12/20 12:54:33;;;;;;;10.43;2.67;;;;;;;;;;5049702;28;20080;-73
2021/12/20 12:57:12;;;;;;;8.10;2.25;;;;;;;;;;5085221;28;20052;-74
2021/12/20 12:59:41;;;;;;;6.30;2.28;;;;;;;;;;5055761;28;20392;-74
2021/12/20 13:02:12;;;;;;;8.35;2.45;;;;;;;;;;5084230;28;20107;-74
2021/12/20 13:04:45;;;;;;;10.82;2.50;;;;;;;;;;5087960;28;20051;-73
2021/12/20 13:07:12;;;;;;;11.65;2.33;;;;;;;;;;5090261;28;20052;-73
2021/12/20 13:09:44;;;;;;;10.85;3.08;;;;;;;;;;5055713;28;20563;-73
2021/12/20 13:12:14;;;;;;;5.97;2.60;;;;;;;;;;5056817;28;20056;-73
2021/12/20 13:16:05;;;;;;;15.98;2.97;;;;;;;;;;5089677;28;20048;-73
2021/12/20 13:17:57;;;;;;;7.35;2.10;;;;;;;;;;5046931;28;20056;-72
2021/12/20 13:20:32;;;;;;;11.93;2.63;;;;;;;;;;5089867;28;20082;-72
2021/12/20 13:22:58;;;;;;;8.45;2.85;;;;;;;;;;5087301;28;20052;-73
2021/12/20 13:25:38;;;;;;;9.10;2.60;;;;;;;;;;5089437;28;20051;-73
2021/12/20 13:28:05;;;;;;;8.68;2.53;;;;;;;;;;5090271;28;20052;-73
2021/12/20 13:30:42;;;;;;;14.43;2.67;;;;;;;;;;5053514;28;21321;-73
2021/12/20 13:33:08;;;;;;;9.38;2.65;;;;;;;;;;5056655;28;20040;-73
2021/12/20 13:35:36;;;;;;;8.65;2.95;;;;;;;;;;5058271;28;20042;-73
2021/12/20 13:38:21;;;;;;;7.95;2.50;;;;;;;;;;5085578;28;20515;-73
2021/12/20 13:40:52;;;;;;;6.82;2.33;;;;;;;;;;5088072;28;20513;-73
2021/12/20 13:43:25;;;;;;;6.47;2.72;;;;;;;;;;5091892;28;20076;-73
2021/12/20 13:46:11;;;;;;;6.50;2.40;;;;;;;;;;5056474;28;20043;-73
2021/12/20 13:48:45;;;;;;;9.82;2.88;;;;;;;;;;5053726;28;20044;-73
2021/12/20 13:51:11;;;;;;;10.95;2.85;;;;;;;;;;5058857;28;20041;-74
2021/12/20 13:53:37;;;;;;;12.15;2.85;;;;;;;;;;5091231;28;20037;-73
2021/12/20 13:56:04;;;;;;;10.15;2.95;;;;;;;;;;5091036;28;20074;-73
2021/12/20 13:58:31;;;;;;;13.25;3.08;;;;;;;;;;5060748;28;20535;-73
2021/12/20 14:00:57;;;;;;;10.45;2.65;;;;;;;;;;5063307;28;20087;-73
2021/12/20 14:03:23;;;;;;;10.68;2.78;;;;;;;;;;5088596;28;20056;-73
2021/12/20 14:05:50;;;;;;;8.27;2.47;;;;;;;;;;5084410;28;20056;-74
2021/12/20 14:08:17;;;;;;;12.30;2.75;;;;;;;;;;5089584;28;20086;-73
2021/12/20 14:10:44;;;;;;;8.10;2.67;;;;;;;;;;5054491;28;20545;-73
2021/12/20 14:13:15;;;;;;;11.25;3.70;;;;;;;;;;5056766;28;20089;-73
2021/12/20 14:15:44;;;;;;;8.77;2.72;;;;;;;;;;5056877;28;20037;-73
2021/12/20 14:18:20;;;;;;;11.20;2.72;;;;;;;;;;5065889;28;20493;-73
2021/12/20 14:20:50;;;;;;;5.50;2.30;;;;;;;;;;5068809;28;20045;-74
2021/12/20 14:23:24;;;;;;;12.00;3.17;;;;;;;;;;5098744;28;20511;-73
2021/12/20 14:25:51;;;;;;;10.40;3.67;;;;;;;;;;5064503;28;20052;-74
2021/12/20 14:28:17;;;;;;;8.52;3.20;;;;;;;;;;5070220;28;20045;-73
2021/12/20 14:30:45;;;;;;;8.82;3.70;;;;;;;;;;5067293;28;20044;-73
2021/12/20 14:33:27;;;;;;;11.90;3.80;;;;;;;;;;5062402;28;20131;-73
2021/12/20 14:36:10;;;;;;;8.57;3.28;;;;;;;;;;5068620;28;20111;-73
2021/12/20 14:38:53;;;;;;;9.20;3.83;;;;;;;;;;5103162;28;20084;-74
2021/12/20 14:41:19;;;;;;;9.90;3.65;;;;;;;;;;5054027;28;20402;-74
2021/12/20 14:43:45;;;;;;;9.90;3.35;;;;;;;;;;5056028;28;20041;-74
2021/12/20 14:46:13;;;;;;;7.68;3.35;;;;;;;;;;5089049;28;20056;-74
2021/12/20 14:48:54;;;;;;;12.27;3.83;;;;;;;;;;5091412;28;20043;-74
2021/12/20 14:51:22;;;;;;;8.13;3.50;;;;;;;;;;5088935;28;20087;-74
2021/12/20 14:53:48;;;;;;;13.27;4.28;;;;;;;;;;5058049;28;20056;-73
2021/12/20 14:56:15;;;;;;;16.60;4.55;;;;;;;;;;5070376;28;20048;-74
2021/12/20 14:58:41;;;;;;;18.77;3.92;;;;;;;;;;5059671;28;20094;-74